sensor_id;sensor_type;location;lat;lon;timestamp;temperature;humidity
42615;DHT22;28754;47.700;7.924;2023-07-20T00:02:39;19.00;99.90
42615;DHT22;28754;47.700;7.924;2023-07-20T00:05:25;19.00;99.90
42615;DHT22;28754;47.700;7.924;2023-07-20T00:08:12;19.00;99.90
42615;DHT22;28754;47.700;7.924;2023-07-20T00:10:59;18.90;99.90
42615;DHT22;28754;47.700;7.924;2023-07-20T00:13:46;18.90;99.90
42615;DHT22;28754;47.700;7.924;2023-07-20T00:16:33;19.00;99.90
42615;DHT22;28754;47.700;7.924;2023-07-20T00:19:20;18.90;99.90
42615;DHT22;28754;47.700;7.924;2023-07-20T00:22:07;19.00;99.90
42615;DHT22;28754;47.700;7.924;2023-07-20T00:24:55;19.00;99.90
42615;DHT22;28754;47.700;7.924;2023-07-20T00:27:42;19.00;99.90
42615;DHT22;28754;47.700;7.924;2023-07-20T00:30:28;18.90;99.90
42615;DHT22;28754;47.700;7.924;2023-07-20T00:33:17;18.80;99.90
42615;DHT22;28754;47.700;7.924;2023-07-20T00:36:04;18.80;99.90
42615;DHT22;28754;47.700;7.924;2023-07-20T00:38:51;18.70;99.90
42615;DHT22;28754;47.700;7.924;2023-07-20T00:41:38;18.60;99.90
42615;DHT22;28754;47.700;7.924;2023-07-20T00:44:24;18.60;99.90
42615;DHT22;28754;47.700;7.924;2023-07-20T00:47:11;18.60;99.90
42615;DHT22;28754;47.700;7.924;2023-07-20T00:49:58;18.50;99.90
42615;DHT22;28754;47.700;7.924;2023-07-20T00:52:45;18.40;99.90
42615;DHT22;28754;47.700;7.924;2023-07-20T00:55:32;18.40;99.90
42615;DHT22;28754;47.700;7.924;2023-07-20T00:58:20;18.20;99.90
42615;DHT22;28754;47.700;7.924;2023-07-20T01:01:07;18.20;99.90
42615;DHT22;28754;47.700;7.924;2023-07-20T01:03:53;18.20;99.90
42615;DHT22;28754;47.700;7.924;2023-07-20T01:07:03;18.20;99.90
42615;DHT22;28754;47.700;7.924;2023-07-20T01:10:16;18.20;99.90
42615;DHT22;28754;47.700;7.924;2023-07-20T01:13:07;18.00;99.90
42615;DHT22;28754;47.700;7.924;2023-07-20T01:16:02;17.90;99.90
42615;DHT22;28754;47.700;7.924;2023-07-20T01:18:52;17.90;99.90
42615;DHT22;28754;47.700;7.924;2023-07-20T01:22:03;17.70;99.90
42615;DHT22;28754;47.700;7.924;2023-07-20T01:28:57;17.80;99.90
42615;DHT22;28754;47.700;7.924;2023-07-20T01:31:53;17.70;99.90
42615;DHT22;28754;47.700;7.924;2023-07-20T01:34:41;17.80;99.90
42615;DHT22;28754;47.700;7.924;2023-07-20T01:37:30;17.90;99.90
42615;DHT22;28754;47.700;7.924;2023-07-20T01:40:20;17.80;99.90
42615;DHT22;28754;47.700;7.924;2023-07-20T01:43:12;17.80;99.90
42615;DHT22;28754;47.700;7.924;2023-07-20T01:46:10;17.80;99.90
42615;DHT22;28754;47.700;7.924;2023-07-20T01:48:58;17.70;99.90
42615;DHT22;28754;47.700;7.924;2023-07-20T01:51:45;17.60;99.90
42615;DHT22;28754;47.700;7.924;2023-07-20T01:54:32;17.60;99.90
42615;DHT22;28754;47.700;7.924;2023-07-20T01:57:20;17.50;99.90
42615;DHT22;28754;47.700;7.924;2023-07-20T02:10:11;17.60;99.90
42615;DHT22;28754;47.700;7.924;2023-07-20T02:13:01;17.60;99.90
42615;DHT22;28754;47.700;7.924;2023-07-20T02:15:49;17.60;99.90
42615;DHT22;28754;47.700;7.924;2023-07-20T02:18:37;17.60;99.90
42615;DHT22;28754;47.700;7.924;2023-07-20T02:21:24;17.60;99.90
42615;DHT22;28754;47.700;7.924;2023-07-20T02:24:12;17.50;99.90
42615;DHT22;28754;47.700;7.924;2023-07-20T02:27:00;17.50;99.90
42615;DHT22;28754;47.700;7.924;2023-07-20T02:29:48;17.50;99.90
42615;DHT22;28754;47.700;7.924;2023-07-20T02:32:38;17.50;99.90
42615;DHT22;28754;47.700;7.924;2023-07-20T02:35:25;17.50;99.90
42615;DHT22;28754;47.700;7.924;2023-07-20T02:38:12;17.50;99.90
42615;DHT22;28754;47.700;7.924;2023-07-20T02:43:46;17.50;99.90
42615;DHT22;28754;47.700;7.924;2023-07-20T02:46:33;17.50;99.90
42615;DHT22;28754;47.700;7.924;2023-07-20T02:49:22;17.50;99.90
42615;DHT22;28754;47.700;7.924;2023-07-20T02:52:10;17.60;99.90
42615;DHT22;28754;47.700;7.924;2023-07-20T02:55:00;17.60;99.90
42615;DHT22;28754;47.700;7.924;2023-07-20T03:01:06;17.40;99.90
42615;DHT22;28754;47.700;7.924;2023-07-20T03:03:53;17.40;99.90
42615;DHT22;28754;47.700;7.924;2023-07-20T03:06:44;17.30;99.90
42615;DHT22;28754;47.700;7.924;2023-07-20T03:09:34;17.20;99.90
42615;DHT22;28754;47.700;7.924;2023-07-20T03:12:28;17.30;99.90
42615;DHT22;28754;47.700;7.924;2023-07-20T03:15:16;17.30;99.90
42615;DHT22;28754;47.700;7.924;2023-07-20T03:18:04;17.30;99.90
42615;DHT22;28754;47.700;7.924;2023-07-20T03:20:53;17.30;99.90
42615;DHT22;28754;47.700;7.924;2023-07-20T03:23:41;17.30;99.90
42615;DHT22;28754;47.700;7.924;2023-07-20T03:34:37;17.50;99.90
42615;DHT22;28754;47.700;7.924;2023-07-20T03:37:23;17.40;99.90
42615;DHT22;28754;47.700;7.924;2023-07-20T03:40:10;17.40;99.90
42615;DHT22;28754;47.700;7.924;2023-07-20T03:42:57;17.40;99.90
42615;DHT22;28754;47.700;7.924;2023-07-20T03:45:44;17.50;99.90
42615;DHT22;28754;47.700;7.924;2023-07-20T03:48:33;17.40;99.90
42615;DHT22;28754;47.700;7.924;2023-07-20T03:51:20;17.40;99.90
42615;DHT22;28754;47.700;7.924;2023-07-20T03:54:07;17.40;99.90
42615;DHT22;28754;47.700;7.924;2023-07-20T03:56:54;17.40;99.90
42615;DHT22;28754;47.700;7.924;2023-07-20T03:59:45;17.40;99.90
42615;DHT22;28754;47.700;7.924;2023-07-20T04:02:33;17.30;99.90
42615;DHT22;28754;47.700;7.924;2023-07-20T04:05:22;17.30;99.90
42615;DHT22;28754;47.700;7.924;2023-07-20T04:08:09;17.20;99.90
42615;DHT22;28754;47.700;7.924;2023-07-20T04:10:57;17.20;99.90
42615;DHT22;28754;47.700;7.924;2023-07-20T04:13:44;17.20;99.90
42615;DHT22;28754;47.700;7.924;2023-07-20T04:16:31;17.30;99.90
42615;DHT22;28754;47.700;7.924;2023-07-20T04:19:19;17.20;99.90
42615;DHT22;28754;47.700;7.924;2023-07-20T04:22:05;17.30;99.90
42615;DHT22;28754;47.700;7.924;2023-07-20T04:24:52;17.10;99.90
42615;DHT22;28754;47.700;7.924;2023-07-20T04:27:39;17.00;99.90
42615;DHT22;28754;47.700;7.924;2023-07-20T04:30:26;17.00;99.90
42615;DHT22;28754;47.700;7.924;2023-07-20T04:33:13;17.00;99.90
42615;DHT22;28754;47.700;7.924;2023-07-20T04:36:01;17.10;99.90
42615;DHT22;28754;47.700;7.924;2023-07-20T04:38:50;17.10;99.90
42615;DHT22;28754;47.700;7.924;2023-07-20T04:41:41;17.10;99.90
42615;DHT22;28754;47.700;7.924;2023-07-20T04:44:27;17.00;99.90
42615;DHT22;28754;47.700;7.924;2023-07-20T04:47:14;17.10;99.90
42615;DHT22;28754;47.700;7.924;2023-07-20T04:50:01;17.10;99.90
42615;DHT22;28754;47.700;7.924;2023-07-20T04:52:49;17.20;99.90
42615;DHT22;28754;47.700;7.924;2023-07-20T04:55:39;17.40;99.90
42615;DHT22;28754;47.700;7.924;2023-07-20T04:58:28;17.40;99.90
42615;DHT22;28754;47.700;7.924;2023-07-20T05:01:15;17.30;99.90
42615;DHT22;28754;47.700;7.924;2023-07-20T05:04:02;17.40;99.90
42615;DHT22;28754;47.700;7.924;2023-07-20T05:06:49;17.40;99.90
42615;DHT22;28754;47.700;7.924;2023-07-20T05:09:36;17.40;99.90
42615;DHT22;28754;47.700;7.924;2023-07-20T05:12:22;17.50;99.90
42615;DHT22;28754;47.700;7.924;2023-07-20T05:15:09;17.40;99.90
42615;DHT22;28754;47.700;7.924;2023-07-20T05:17:58;17.50;99.90
42615;DHT22;28754;47.700;7.924;2023-07-20T05:20:46;17.60;99.90
42615;DHT22;28754;47.700;7.924;2023-07-20T05:23:35;17.70;99.90
42615;DHT22;28754;47.700;7.924;2023-07-20T05:26:22;17.90;99.90
42615;DHT22;28754;47.700;7.924;2023-07-20T05:29:08;18.10;99.90
42615;DHT22;28754;47.700;7.924;2023-07-20T05:31:55;18.20;99.90
42615;DHT22;28754;47.700;7.924;2023-07-20T05:34:42;18.20;99.90
42615;DHT22;28754;47.700;7.924;2023-07-20T05:37:28;18.40;99.90
42615;DHT22;28754;47.700;7.924;2023-07-20T05:40:15;18.40;99.90
42615;DHT22;28754;47.700;7.924;2023-07-20T05:43:05;18.60;99.90
42615;DHT22;28754;47.700;7.924;2023-07-20T05:45:51;18.60;99.90
42615;DHT22;28754;47.700;7.924;2023-07-20T05:48:38;18.60;99.90
42615;DHT22;28754;47.700;7.924;2023-07-20T05:51:26;18.70;99.90
42615;DHT22;28754;47.700;7.924;2023-07-20T05:54:12;18.70;99.90
42615;DHT22;28754;47.700;7.924;2023-07-20T05:56:59;18.80;99.90
42615;DHT22;28754;47.700;7.924;2023-07-20T05:59:46;18.90;99.90
42615;DHT22;28754;47.700;7.924;2023-07-20T06:02:32;18.90;99.90
42615;DHT22;28754;47.700;7.924;2023-07-20T06:05:19;18.90;99.90
42615;DHT22;28754;47.700;7.924;2023-07-20T06:08:07;19.00;99.90
42615;DHT22;28754;47.700;7.924;2023-07-20T06:10:54;19.10;99.90
42615;DHT22;28754;47.700;7.924;2023-07-20T06:13:41;19.20;99.90
42615;DHT22;28754;47.700;7.924;2023-07-20T06:16:29;19.30;99.90
42615;DHT22;28754;47.700;7.924;2023-07-20T06:19:16;19.40;99.90
42615;DHT22;28754;47.700;7.924;2023-07-20T06:22:03;19.70;99.90
42615;DHT22;28754;47.700;7.924;2023-07-20T06:24:49;19.70;99.90
42615;DHT22;28754;47.700;7.924;2023-07-20T06:27:36;19.60;99.90
42615;DHT22;28754;47.700;7.924;2023-07-20T06:30:23;19.70;99.90
42615;DHT22;28754;47.700;7.924;2023-07-20T06:33:10;19.80;99.90
42615;DHT22;28754;47.700;7.924;2023-07-20T06:35:57;19.90;99.90
42615;DHT22;28754;47.700;7.924;2023-07-20T06:38:44;19.80;99.90
42615;DHT22;28754;47.700;7.924;2023-07-20T06:41:31;19.80;99.90
42615;DHT22;28754;47.700;7.924;2023-07-20T06:44:17;20.00;99.90
42615;DHT22;28754;47.700;7.924;2023-07-20T06:47:04;20.30;99.90
42615;DHT22;28754;47.700;7.924;2023-07-20T06:49:52;20.20;99.90
42615;DHT22;28754;47.700;7.924;2023-07-20T06:52:38;20.40;99.90
42615;DHT22;28754;47.700;7.924;2023-07-20T06:55:26;20.50;99.90
42615;DHT22;28754;47.700;7.924;2023-07-20T06:58:12;20.60;99.90
42615;DHT22;28754;47.700;7.924;2023-07-20T07:00:59;20.60;99.90
42615;DHT22;28754;47.700;7.924;2023-07-20T07:03:46;20.70;99.90
42615;DHT22;28754;47.700;7.924;2023-07-20T07:06:32;20.70;99.90
42615;DHT22;28754;47.700;7.924;2023-07-20T07:09:19;21.00;99.90
42615;DHT22;28754;47.700;7.924;2023-07-20T07:12:07;20.60;99.90
42615;DHT22;28754;47.700;7.924;2023-07-20T07:14:54;20.00;99.90
42615;DHT22;28754;47.700;7.924;2023-07-20T07:17:41;20.10;99.90
42615;DHT22;28754;47.700;7.924;2023-07-20T07:20:29;20.50;99.90
42615;DHT22;28754;47.700;7.924;2023-07-20T07:23:16;20.50;99.90
42615;DHT22;28754;47.700;7.924;2023-07-20T07:26:03;20.60;99.90
42615;DHT22;28754;47.700;7.924;2023-07-20T07:28:49;20.60;99.90
42615;DHT22;28754;47.700;7.924;2023-07-20T07:31:36;20.80;99.90
42615;DHT22;28754;47.700;7.924;2023-07-20T07:34:24;20.80;99.90
42615;DHT22;28754;47.700;7.924;2023-07-20T07:37:11;20.70;99.90
42615;DHT22;28754;47.700;7.924;2023-07-20T07:39:58;20.50;99.90
42615;DHT22;28754;47.700;7.924;2023-07-20T07:42:45;20.70;99.90
42615;DHT22;28754;47.700;7.924;2023-07-20T07:45:34;20.60;99.90
42615;DHT22;28754;47.700;7.924;2023-07-20T07:48:23;20.50;99.90
42615;DHT22;28754;47.700;7.924;2023-07-20T07:51:11;20.70;99.90
42615;DHT22;28754;47.700;7.924;2023-07-20T07:53:59;20.40;99.90
42615;DHT22;28754;47.700;7.924;2023-07-20T07:56:46;20.20;99.90
42615;DHT22;28754;47.700;7.924;2023-07-20T07:59:33;19.90;99.90
42615;DHT22;28754;47.700;7.924;2023-07-20T08:02:23;19.80;99.90
42615;DHT22;28754;47.700;7.924;2023-07-20T08:05:09;19.80;99.90
42615;DHT22;28754;47.700;7.924;2023-07-20T08:07:56;19.90;99.90
42615;DHT22;28754;47.700;7.924;2023-07-20T08:10:43;20.10;99.90
42615;DHT22;28754;47.700;7.924;2023-07-20T08:13:29;20.30;99.90
42615;DHT22;28754;47.700;7.924;2023-07-20T08:16:16;20.80;99.90
42615;DHT22;28754;47.700;7.924;2023-07-20T08:19:03;21.00;99.90
42615;DHT22;28754;47.700;7.924;2023-07-20T08:21:49;21.20;99.90
42615;DHT22;28754;47.700;7.924;2023-07-20T08:24:40;21.50;99.90
42615;DHT22;28754;47.700;7.924;2023-07-20T08:27:27;21.30;99.90
42615;DHT22;28754;47.700;7.924;2023-07-20T08:30:13;21.00;99.90
42615;DHT22;28754;47.700;7.924;2023-07-20T08:33:00;21.20;99.90
42615;DHT22;28754;47.700;7.924;2023-07-20T08:35:47;21.00;99.90
42615;DHT22;28754;47.700;7.924;2023-07-20T08:38:34;21.10;99.90
42615;DHT22;28754;47.700;7.924;2023-07-20T08:41:21;20.90;99.90
42615;DHT22;28754;47.700;7.924;2023-07-20T08:44:08;21.60;99.90
42615;DHT22;28754;47.700;7.924;2023-07-20T08:46:56;21.20;99.90
42615;DHT22;28754;47.700;7.924;2023-07-20T08:49:44;21.30;99.90
42615;DHT22;28754;47.700;7.924;2023-07-20T08:52:34;22.10;99.90
42615;DHT22;28754;47.700;7.924;2023-07-20T08:55:21;22.00;99.90
42615;DHT22;28754;47.700;7.924;2023-07-20T08:58:12;21.70;99.90
42615;DHT22;28754;47.700;7.924;2023-07-20T09:01:01;21.60;99.90
42615;DHT22;28754;47.700;7.924;2023-07-20T09:03:49;22.40;99.90
42615;DHT22;28754;47.700;7.924;2023-07-20T09:06:36;23.00;99.90
42615;DHT22;28754;47.700;7.924;2023-07-20T09:09:23;23.30;99.90
42615;DHT22;28754;47.700;7.924;2023-07-20T09:12:14;22.80;99.90
42615;DHT22;28754;47.700;7.924;2023-07-20T09:15:02;22.40;99.90
42615;DHT22;28754;47.700;7.924;2023-07-20T09:17:51;22.60;99.90
42615;DHT22;28754;47.700;7.924;2023-07-20T09:20:40;22.90;99.90
42615;DHT22;28754;47.700;7.924;2023-07-20T09:23:35;22.80;99.90
42615;DHT22;28754;47.700;7.924;2023-07-20T09:26:24;22.70;99.90
42615;DHT22;28754;47.700;7.924;2023-07-20T09:29:11;22.00;99.90
42615;DHT22;28754;47.700;7.924;2023-07-20T09:32:05;22.60;99.90
42615;DHT22;28754;47.700;7.924;2023-07-20T09:34:51;21.70;99.90
42615;DHT22;28754;47.700;7.924;2023-07-20T09:37:38;22.40;99.90
42615;DHT22;28754;47.700;7.924;2023-07-20T09:40:26;23.20;99.90
42615;DHT22;28754;47.700;7.924;2023-07-20T09:43:15;23.30;99.90
42615;DHT22;28754;47.700;7.924;2023-07-20T09:46:02;23.20;99.90
42615;DHT22;28754;47.700;7.924;2023-07-20T09:48:52;23.20;99.90
42615;DHT22;28754;47.700;7.924;2023-07-20T09:51:42;23.20;99.90
42615;DHT22;28754;47.700;7.924;2023-07-20T09:54:31;23.70;99.90
42615;DHT22;28754;47.700;7.924;2023-07-20T09:57:19;24.10;99.90
42615;DHT22;28754;47.700;7.924;2023-07-20T10:00:08;24.10;99.90
42615;DHT22;28754;47.700;7.924;2023-07-20T10:03:00;23.10;99.90
42615;DHT22;28754;47.700;7.924;2023-07-20T10:06:02;23.20;99.90
42615;DHT22;28754;47.700;7.924;2023-07-20T10:08:56;23.00;99.90
42615;DHT22;28754;47.700;7.924;2023-07-20T10:11:50;22.90;99.90
42615;DHT22;28754;47.700;7.924;2023-07-20T10:14:41;23.00;99.90
42615;DHT22;28754;47.700;7.924;2023-07-20T10:17:44;22.60;99.90
42615;DHT22;28754;47.700;7.924;2023-07-20T10:20:55;23.00;99.90
42615;DHT22;28754;47.700;7.924;2023-07-20T10:23:43;23.70;99.90
42615;DHT22;28754;47.700;7.924;2023-07-20T10:26:30;23.60;99.90
42615;DHT22;28754;47.700;7.924;2023-07-20T10:29:18;23.70;99.90
42615;DHT22;28754;47.700;7.924;2023-07-20T10:32:06;23.10;99.90
42615;DHT22;28754;47.700;7.924;2023-07-20T10:34:56;23.00;99.90
42615;DHT22;28754;47.700;7.924;2023-07-20T10:37:54;22.30;99.90
42615;DHT22;28754;47.700;7.924;2023-07-20T10:40:55;22.60;99.90
42615;DHT22;28754;47.700;7.924;2023-07-20T10:43:43;23.00;99.90
42615;DHT22;28754;47.700;7.924;2023-07-20T10:46:41;23.10;99.90
42615;DHT22;28754;47.700;7.924;2023-07-20T10:49:39;23.30;99.90
42615;DHT22;28754;47.700;7.924;2023-07-20T10:53:04;23.30;99.90
42615;DHT22;28754;47.700;7.924;2023-07-20T10:56:06;23.70;99.90
42615;DHT22;28754;47.700;7.924;2023-07-20T10:59:20;23.30;99.90
42615;DHT22;28754;47.700;7.924;2023-07-20T11:02:24;23.60;99.90
42615;DHT22;28754;47.700;7.924;2023-07-20T11:05:31;23.70;99.90
42615;DHT22;28754;47.700;7.924;2023-07-20T11:08:38;24.10;99.90
42615;DHT22;28754;47.700;7.924;2023-07-20T11:11:37;23.70;99.90
42615;DHT22;28754;47.700;7.924;2023-07-20T11:14:25;23.40;99.90
42615;DHT22;28754;47.700;7.924;2023-07-20T11:17:14;23.10;99.90
42615;DHT22;28754;47.700;7.924;2023-07-20T11:20:02;23.10;99.90
42615;DHT22;28754;47.700;7.924;2023-07-20T11:22:50;23.50;99.90
42615;DHT22;28754;47.700;7.924;2023-07-20T11:25:40;24.00;99.90
42615;DHT22;28754;47.700;7.924;2023-07-20T11:28:30;24.60;99.90
42615;DHT22;28754;47.700;7.924;2023-07-20T11:31:16;24.20;99.90
42615;DHT22;28754;47.700;7.924;2023-07-20T11:34:03;24.10;99.90
42615;DHT22;28754;47.700;7.924;2023-07-20T11:36:51;23.70;99.90
42615;DHT22;28754;47.700;7.924;2023-07-20T11:39:38;24.30;99.90
42615;DHT22;28754;47.700;7.924;2023-07-20T11:42:26;24.30;99.90
42615;DHT22;28754;47.700;7.924;2023-07-20T11:45:12;24.40;99.90
42615;DHT22;28754;47.700;7.924;2023-07-20T11:48:00;24.00;99.90
42615;DHT22;28754;47.700;7.924;2023-07-20T11:50:47;24.30;99.90
42615;DHT22;28754;47.700;7.924;2023-07-20T11:53:34;24.00;99.90
42615;DHT22;28754;47.700;7.924;2023-07-20T11:56:24;23.90;99.90
42615;DHT22;28754;47.700;7.924;2023-07-20T11:59:11;23.50;99.90
42615;DHT22;28754;47.700;7.924;2023-07-20T12:02:02;23.40;99.90
42615;DHT22;28754;47.700;7.924;2023-07-20T12:04:49;23.50;99.90
42615;DHT22;28754;47.700;7.924;2023-07-20T12:07:36;23.70;99.90
42615;DHT22;28754;47.700;7.924;2023-07-20T12:10:27;24.00;99.90
42615;DHT22;28754;47.700;7.924;2023-07-20T12:13:14;23.70;99.90
42615;DHT22;28754;47.700;7.924;2023-07-20T12:16:13;23.00;99.90
42615;DHT22;28754;47.700;7.924;2023-07-20T12:19:05;23.00;99.90
42615;DHT22;28754;47.700;7.924;2023-07-20T12:21:57;23.90;99.90
42615;DHT22;28754;47.700;7.924;2023-07-20T12:24:47;24.80;99.90
42615;DHT22;28754;47.700;7.924;2023-07-20T12:27:38;24.90;99.90
42615;DHT22;28754;47.700;7.924;2023-07-20T12:30:25;24.50;99.90
42615;DHT22;28754;47.700;7.924;2023-07-20T12:33:12;25.00;99.90
42615;DHT22;28754;47.700;7.924;2023-07-20T12:36:02;24.40;99.90
42615;DHT22;28754;47.700;7.924;2023-07-20T12:38:48;24.10;99.90
42615;DHT22;28754;47.700;7.924;2023-07-20T12:41:35;24.40;99.90
42615;DHT22;28754;47.700;7.924;2023-07-20T12:44:22;24.50;99.90
42615;DHT22;28754;47.700;7.924;2023-07-20T12:47:09;24.80;99.90
42615;DHT22;28754;47.700;7.924;2023-07-20T12:49:55;25.20;99.90
42615;DHT22;28754;47.700;7.924;2023-07-20T12:52:42;25.50;99.90
42615;DHT22;28754;47.700;7.924;2023-07-20T12:55:29;25.60;99.90
42615;DHT22;28754;47.700;7.924;2023-07-20T12:58:16;25.80;99.90
42615;DHT22;28754;47.700;7.924;2023-07-20T13:01:02;25.50;99.90
42615;DHT22;28754;47.700;7.924;2023-07-20T13:03:49;25.20;99.90
42615;DHT22;28754;47.700;7.924;2023-07-20T13:06:36;25.50;99.90
42615;DHT22;28754;47.700;7.924;2023-07-20T13:09:22;25.00;99.90
42615;DHT22;28754;47.700;7.924;2023-07-20T13:12:09;24.90;99.90
42615;DHT22;28754;47.700;7.924;2023-07-20T13:14:56;24.50;99.90
42615;DHT22;28754;47.700;7.924;2023-07-20T13:17:46;24.90;99.90
42615;DHT22;28754;47.700;7.924;2023-07-20T13:20:33;24.90;99.90
42615;DHT22;28754;47.700;7.924;2023-07-20T13:23:20;25.00;99.90
42615;DHT22;28754;47.700;7.924;2023-07-20T13:26:07;25.00;99.90
42615;DHT22;28754;47.700;7.924;2023-07-20T13:28:54;25.70;99.90
42615;DHT22;28754;47.700;7.924;2023-07-20T13:31:41;26.20;99.90
42615;DHT22;28754;47.700;7.924;2023-07-20T13:34:28;26.20;99.90
42615;DHT22;28754;47.700;7.924;2023-07-20T13:37:15;25.80;99.90
42615;DHT22;28754;47.700;7.924;2023-07-20T13:40:02;25.80;99.90
42615;DHT22;28754;47.700;7.924;2023-07-20T13:42:51;26.00;99.90
42615;DHT22;28754;47.700;7.924;2023-07-20T13:45:38;26.30;99.90
42615;DHT22;28754;47.700;7.924;2023-07-20T13:48:24;26.00;99.90
42615;DHT22;28754;47.700;7.924;2023-07-20T13:51:11;26.40;99.90
42615;DHT22;28754;47.700;7.924;2023-07-20T13:53:58;26.10;99.90
42615;DHT22;28754;47.700;7.924;2023-07-20T13:56:45;25.80;99.90
42615;DHT22;28754;47.700;7.924;2023-07-20T13:59:31;25.00;99.90
42615;DHT22;28754;47.700;7.924;2023-07-20T14:02:18;24.90;99.90
42615;DHT22;28754;47.700;7.924;2023-07-20T14:05:05;25.20;99.90
42615;DHT22;28754;47.700;7.924;2023-07-20T14:07:52;25.10;99.90
42615;DHT22;28754;47.700;7.924;2023-07-20T14:10:38;25.40;99.90
42615;DHT22;28754;47.700;7.924;2023-07-20T14:13:25;26.00;99.90
42615;DHT22;28754;47.700;7.924;2023-07-20T14:16:12;25.70;99.90
42615;DHT22;28754;47.700;7.924;2023-07-20T14:18:59;26.00;99.90
42615;DHT22;28754;47.700;7.924;2023-07-20T14:21:45;26.50;99.90
42615;DHT22;28754;47.700;7.924;2023-07-20T14:24:32;26.60;99.90
42615;DHT22;28754;47.700;7.924;2023-07-20T14:27:19;26.10;99.90
42615;DHT22;28754;47.700;7.924;2023-07-20T14:30:06;26.30;99.90
42615;DHT22;28754;47.700;7.924;2023-07-20T14:32:55;27.00;99.90
42615;DHT22;28754;47.700;7.924;2023-07-20T14:35:41;26.70;99.90
42615;DHT22;28754;47.700;7.924;2023-07-20T14:38:30;26.50;99.90
42615;DHT22;28754;47.700;7.924;2023-07-20T14:41:17;26.00;99.90
42615;DHT22;28754;47.700;7.924;2023-07-20T14:44:04;25.70;99.90
42615;DHT22;28754;47.700;7.924;2023-07-20T14:46:51;25.90;99.90
42615;DHT22;28754;47.700;7.924;2023-07-20T14:49:38;26.40;99.90
42615;DHT22;28754;47.700;7.924;2023-07-20T14:52:24;26.70;99.90
42615;DHT22;28754;47.700;7.924;2023-07-20T14:55:11;26.70;99.90
42615;DHT22;28754;47.700;7.924;2023-07-20T14:57:58;26.80;99.90
42615;DHT22;28754;47.700;7.924;2023-07-20T15:00:44;26.90;99.90
42615;DHT22;28754;47.700;7.924;2023-07-20T15:03:31;26.30;99.90
42615;DHT22;28754;47.700;7.924;2023-07-20T15:06:18;26.20;99.90
42615;DHT22;28754;47.700;7.924;2023-07-20T15:09:05;26.50;99.90
42615;DHT22;28754;47.700;7.924;2023-07-20T15:11:52;26.90;99.90
42615;DHT22;28754;47.700;7.924;2023-07-20T15:14:40;27.00;99.90
42615;DHT22;28754;47.700;7.924;2023-07-20T15:17:28;26.20;99.90
42615;DHT22;28754;47.700;7.924;2023-07-20T15:20:15;25.20;99.90
42615;DHT22;28754;47.700;7.924;2023-07-20T15:23:02;25.30;99.90
42615;DHT22;28754;47.700;7.924;2023-07-20T15:25:49;25.80;99.90
42615;DHT22;28754;47.700;7.924;2023-07-20T15:28:35;26.10;99.90
42615;DHT22;28754;47.700;7.924;2023-07-20T15:31:22;26.40;99.90
42615;DHT22;28754;47.700;7.924;2023-07-20T15:34:09;26.50;99.90
42615;DHT22;28754;47.700;7.924;2023-07-20T15:36:59;26.40;99.90
42615;DHT22;28754;47.700;7.924;2023-07-20T15:39:49;26.50;99.90
42615;DHT22;28754;47.700;7.924;2023-07-20T15:42:36;26.00;99.90
42615;DHT22;28754;47.700;7.924;2023-07-20T15:45:23;25.80;99.90
42615;DHT22;28754;47.700;7.924;2023-07-20T15:48:10;25.20;99.90
42615;DHT22;28754;47.700;7.924;2023-07-20T15:50:56;25.00;99.90
42615;DHT22;28754;47.700;7.924;2023-07-20T15:53:43;25.20;99.90
42615;DHT22;28754;47.700;7.924;2023-07-20T15:56:30;25.20;99.90
42615;DHT22;28754;47.700;7.924;2023-07-20T15:59:17;25.60;99.90
42615;DHT22;28754;47.700;7.924;2023-07-20T16:02:04;25.80;99.90
42615;DHT22;28754;47.700;7.924;2023-07-20T16:04:50;25.60;99.90
42615;DHT22;28754;47.700;7.924;2023-07-20T16:07:37;25.60;99.90
42615;DHT22;28754;47.700;7.924;2023-07-20T16:10:24;25.00;99.90
42615;DHT22;28754;47.700;7.924;2023-07-20T16:13:12;25.00;99.90
42615;DHT22;28754;47.700;7.924;2023-07-20T16:15:58;24.50;99.90
42615;DHT22;28754;47.700;7.924;2023-07-20T16:18:45;24.80;99.90
42615;DHT22;28754;47.700;7.924;2023-07-20T16:21:32;25.00;99.90
42615;DHT22;28754;47.700;7.924;2023-07-20T16:24:19;25.00;99.90
42615;DHT22;28754;47.700;7.924;2023-07-20T16:27:06;24.90;99.90
42615;DHT22;28754;47.700;7.924;2023-07-20T16:29:52;24.70;99.90
42615;DHT22;28754;47.700;7.924;2023-07-20T16:32:41;24.60;99.90
42615;DHT22;28754;47.700;7.924;2023-07-20T16:35:30;24.70;99.90
42615;DHT22;28754;47.700;7.924;2023-07-20T16:38:17;24.80;99.90
42615;DHT22;28754;47.700;7.924;2023-07-20T16:41:06;24.80;99.90
42615;DHT22;28754;47.700;7.924;2023-07-20T16:43:53;24.80;99.90
42615;DHT22;28754;47.700;7.924;2023-07-20T16:46:40;24.50;99.90
42615;DHT22;28754;47.700;7.924;2023-07-20T16:49:27;24.40;99.90
42615;DHT22;28754;47.700;7.924;2023-07-20T16:52:14;24.40;99.90
42615;DHT22;28754;47.700;7.924;2023-07-20T16:55:00;24.30;99.90
42615;DHT22;28754;47.700;7.924;2023-07-20T16:57:47;24.40;99.90
42615;DHT22;28754;47.700;7.924;2023-07-20T17:00:34;24.10;99.90
42615;DHT22;28754;47.700;7.924;2023-07-20T17:03:21;24.20;99.90
42615;DHT22;28754;47.700;7.924;2023-07-20T17:06:08;24.30;99.90
42615;DHT22;28754;47.700;7.924;2023-07-20T17:08:56;24.40;99.90
42615;DHT22;28754;47.700;7.924;2023-07-20T17:11:46;24.30;99.90
42615;DHT22;28754;47.700;7.924;2023-07-20T17:14:34;24.40;99.90
42615;DHT22;28754;47.700;7.924;2023-07-20T17:17:21;24.50;99.90
42615;DHT22;28754;47.700;7.924;2023-07-20T17:20:08;24.40;99.90
42615;DHT22;28754;47.700;7.924;2023-07-20T17:22:59;24.40;99.90
42615;DHT22;28754;47.700;7.924;2023-07-20T17:25:47;24.50;99.90
42615;DHT22;28754;47.700;7.924;2023-07-20T17:28:34;24.40;99.90
42615;DHT22;28754;47.700;7.924;2023-07-20T17:31:20;24.40;99.90
42615;DHT22;28754;47.700;7.924;2023-07-20T17:34:07;24.40;99.90
42615;DHT22;28754;47.700;7.924;2023-07-20T17:36:54;24.40;99.90
42615;DHT22;28754;47.700;7.924;2023-07-20T17:39:42;24.40;99.90
42615;DHT22;28754;47.700;7.924;2023-07-20T17:42:29;24.20;99.90
42615;DHT22;28754;47.700;7.924;2023-07-20T17:45:16;23.50;99.90
42615;DHT22;28754;47.700;7.924;2023-07-20T17:48:03;23.40;99.90
42615;DHT22;28754;47.700;7.924;2023-07-20T17:50:49;23.40;99.90
42615;DHT22;28754;47.700;7.924;2023-07-20T17:53:36;23.50;99.90
42615;DHT22;28754;47.700;7.924;2023-07-20T17:56:23;23.50;99.90
42615;DHT22;28754;47.700;7.924;2023-07-20T17:59:10;23.50;99.90
42615;DHT22;28754;47.700;7.924;2023-07-20T18:01:56;23.60;99.90
42615;DHT22;28754;47.700;7.924;2023-07-20T18:04:43;23.60;99.90
42615;DHT22;28754;47.700;7.924;2023-07-20T18:07:30;23.40;99.90
42615;DHT22;28754;47.700;7.924;2023-07-20T18:10:16;23.40;99.90
42615;DHT22;28754;47.700;7.924;2023-07-20T18:13:03;23.30;99.90